createdAt,value
2017-11-18T00:00:52.222Z,7.10
2017-11-18T00:03:19.892Z,7.10
2017-11-18T00:05:47.840Z,7.10
2017-11-18T00:08:15.281Z,7.00
2017-11-18T00:10:43.240Z,7.00
2017-11-18T00:13:10.709Z,6.90
2017-11-18T00:15:38.187Z,6.90
2017-11-18T00:18:05.740Z,6.90
2017-11-18T00:20:33.583Z,6.90
2017-11-18T00:23:01.082Z,6.90
2017-11-18T00:25:28.606Z,6.90
2017-11-18T00:27:56.062Z,6.90
2017-11-18T00:30:24.131Z,6.80
2017-11-18T00:32:52.130Z,6.80
2017-11-18T00:35:20.116Z,6.80
2017-11-18T00:37:47.560Z,6.80
2017-11-18T00:40:15.020Z,6.90
2017-11-18T00:42:42.544Z,6.90
2017-11-18T00:45:10.023Z,6.90
2017-11-18T00:47:37.496Z,6.90
2017-11-18T00:50:05.642Z,6.90
2017-11-18T00:52:33.549Z,6.90
2017-11-18T00:55:01.050Z,6.90
2017-11-18T00:57:29.884Z,6.90
2017-11-18T00:59:57.350Z,6.80
2017-11-18T01:02:25.919Z,6.80
2017-11-18T01:04:53.373Z,6.70
2017-11-18T01:07:21.342Z,6.70
2017-11-18T01:09:48.810Z,6.70
2017-11-18T01:12:16.257Z,6.60
2017-11-18T01:14:43.721Z,6.60
2017-11-18T01:17:11.166Z,6.50
2017-11-18T01:19:38.663Z,6.50
2017-11-18T01:22:06.882Z,6.40
2017-11-18T01:24:35.089Z,6.40
2017-11-18T01:27:02.676Z,6.40
2017-11-18T01:29:30.320Z,6.40
2017-11-18T01:31:59.076Z,6.30
2017-11-18T01:34:27.252Z,6.30
2017-11-18T01:36:54.690Z,6.30
2017-11-18T01:39:22.163Z,6.30
2017-11-18T01:41:49.632Z,6.30
2017-11-18T01:44:17.101Z,6.20
2017-11-18T01:46:45.854Z,6.10
2017-11-18T01:49:13.826Z,6.10
2017-11-18T01:51:41.328Z,6.10
2017-11-18T01:54:09.091Z,6.10
2017-11-18T01:56:37.300Z,6.00
2017-11-18T01:59:04.882Z,6.00
2017-11-18T02:01:32.875Z,6.10
2017-11-18T02:04:02.083Z,6.10
2017-11-18T02:06:30.786Z,6.10
2017-11-18T02:08:58.603Z,6.10
2017-11-18T02:11:26.047Z,6.10
2017-11-18T02:13:53.582Z,6.10
2017-11-18T02:16:21.024Z,6.10
2017-11-18T02:18:48.506Z,6.10
2017-11-18T02:21:15.985Z,6.10
2017-11-18T02:23:43.643Z,6.10
2017-11-18T02:26:11.256Z,6.10
2017-11-18T02:28:38.730Z,6.10
2017-11-18T02:31:06.522Z,6.20
2017-11-18T02:33:34.809Z,6.20
2017-11-18T02:36:02.619Z,6.20
2017-11-18T02:38:30.198Z,6.30
2017-11-18T02:40:57.650Z,6.30
2017-11-18T02:43:25.558Z,6.40
2017-11-18T02:45:53.003Z,6.40
2017-11-18T02:48:20.558Z,6.40
2017-11-18T02:50:48.456Z,6.40
2017-11-18T02:53:17.122Z,6.40
2017-11-18T02:55:44.562Z,6.40
2017-11-18T02:58:12.031Z,6.40
2017-11-18T03:00:39.487Z,6.40
2017-11-18T03:03:07.251Z,6.40
2017-11-18T03:05:34.701Z,6.40
2017-11-18T03:08:02.669Z,6.50
2017-11-18T03:10:30.124Z,6.40
2017-11-18T03:12:57.598Z,6.50
2017-11-18T03:15:25.449Z,6.50
2017-11-18T03:17:54.255Z,6.50
2017-11-18T03:20:21.701Z,6.50
2017-11-18T03:22:49.149Z,6.40
2017-11-18T03:25:16.611Z,6.40
2017-11-18T03:27:44.462Z,6.30
2017-11-18T03:30:12.448Z,6.30
2017-11-18T03:32:40.412Z,6.30
2017-11-18T03:35:08.474Z,6.20
2017-11-18T03:37:35.923Z,6.20
2017-11-18T03:40:03.356Z,6.30
2017-11-18T03:42:30.919Z,6.30
2017-11-18T03:44:58.388Z,6.30
2017-11-18T03:47:25.860Z,6.30
2017-11-18T03:49:54.656Z,6.30
2017-11-18T03:52:23.852Z,6.30
2017-11-18T03:54:51.617Z,6.30
2017-11-18T03:57:19.054Z,6.30
2017-11-18T03:59:46.935Z,6.30
2017-11-18T04:02:14.873Z,6.20
2017-11-18T04:04:42.316Z,6.30
2017-11-18T04:07:10.123Z,6.30
2017-11-18T04:09:37.573Z,6.40
2017-11-18T04:12:05.045Z,6.40
2017-11-18T04:14:33.988Z,6.50
2017-11-18T04:17:01.450Z,6.50
2017-11-18T04:19:28.882Z,6.50
2017-11-18T04:21:57.523Z,6.40
2017-11-18T04:24:24.962Z,6.40
2017-11-18T04:26:52.447Z,6.40
2017-11-18T04:29:19.870Z,6.40
2017-11-18T04:31:47.875Z,6.40
2017-11-18T04:34:15.822Z,6.50
2017-11-18T04:36:43.356Z,6.50
2017-11-18T04:39:10.819Z,6.50
2017-11-18T04:41:38.271Z,6.50
2017-11-18T04:44:06.507Z,6.50
2017-11-18T04:46:34.755Z,6.50
2017-11-18T04:49:02.632Z,6.50
2017-11-18T04:51:30.086Z,6.50
2017-11-18T04:53:58.200Z,6.50
2017-11-18T04:56:26.226Z,6.50
2017-11-18T04:58:53.688Z,6.50
2017-11-18T05:01:21.853Z,6.60
2017-11-18T05:03:49.294Z,6.50
2017-11-18T05:06:17.200Z,6.60
2017-11-18T05:08:45.639Z,6.50
2017-11-18T05:11:13.732Z,6.50
2017-11-18T05:13:41.216Z,6.50
2017-11-18T05:16:09.928Z,6.50
2017-11-18T05:18:37.383Z,6.40
2017-11-18T05:21:05.354Z,6.50
2017-11-18T05:23:32.911Z,6.50
2017-11-18T05:26:00.348Z,6.50
2017-11-18T05:28:27.926Z,6.40
2017-11-18T05:30:55.814Z,6.40
2017-11-18T05:33:23.697Z,6.40
2017-11-18T05:35:51.561Z,6.40
2017-11-18T05:38:19.074Z,6.40
2017-11-18T05:40:46.530Z,6.40
2017-11-18T05:43:13.998Z,6.40
2017-11-18T05:45:41.470Z,6.40
2017-11-18T05:48:09.056Z,6.40
2017-11-18T05:50:37.727Z,6.40
2017-11-18T05:53:05.597Z,6.40
2017-11-18T05:55:33.072Z,6.40
2017-11-18T05:58:00.534Z,6.40
2017-11-18T06:00:28.750Z,6.50
2017-11-18T06:02:56.650Z,6.40
2017-11-18T06:05:24.187Z,6.50
2017-11-18T06:07:52.062Z,6.50
2017-11-18T06:10:19.515Z,6.50
2017-11-18T06:12:47.300Z,6.50
2017-11-18T06:15:14.738Z,6.40
2017-11-18T06:17:42.328Z,6.40
2017-11-18T06:20:10.047Z,6.30
2017-11-18T06:22:37.566Z,6.30
2017-11-18T06:25:05.786Z,6.30
2017-11-18T06:27:33.304Z,6.30
2017-11-18T06:30:01.708Z,6.40
2017-11-18T06:32:29.176Z,6.40
2017-11-18T06:34:57.125Z,6.40
2017-11-18T06:37:24.592Z,6.40
2017-11-18T06:39:52.055Z,6.40
2017-11-18T06:42:19.604Z,6.40
2017-11-18T06:44:47.194Z,6.40
2017-11-18T06:47:15.754Z,6.40
2017-11-18T06:49:43.842Z,6.40
2017-11-18T06:52:11.670Z,6.40
2017-11-18T06:54:39.495Z,6.40
2017-11-18T06:57:06.967Z,6.40
2017-11-18T06:59:35.170Z,6.40
2017-11-18T07:02:03.086Z,6.40
2017-11-18T07:04:30.606Z,6.40
2017-11-18T07:06:58.541Z,6.40
2017-11-18T07:09:26.878Z,6.40
2017-11-18T07:11:54.859Z,6.30
2017-11-18T07:14:22.298Z,6.40
2017-11-18T07:16:49.760Z,6.30
2017-11-18T07:19:17.271Z,6.30
2017-11-18T07:21:44.781Z,6.30
2017-11-18T07:24:12.254Z,6.40
2017-11-18T07:26:39.686Z,6.40
2017-11-18T07:29:07.370Z,6.50
2017-11-18T07:31:35.114Z,6.50
2017-11-18T07:34:03.076Z,6.50
2017-11-18T07:36:30.527Z,6.50
2017-11-18T07:38:58.202Z,6.60
2017-11-18T07:41:26.071Z,6.60
2017-11-18T07:43:53.570Z,6.60
2017-11-18T07:46:21.599Z,6.60
2017-11-18T07:48:51.550Z,6.50
2017-11-18T07:51:19.759Z,6.60
2017-11-18T07:53:48.017Z,6.60
2017-11-18T07:56:15.451Z,6.60
2017-11-18T07:58:43.762Z,6.60
2017-11-18T08:01:12.166Z,6.60
2017-11-18T08:03:39.611Z,6.60
2017-11-18T08:06:07.659Z,6.70
2017-11-18T08:08:35.120Z,6.70
2017-11-18T08:11:02.592Z,6.70
2017-11-18T08:13:30.031Z,6.70
2017-11-18T08:15:57.510Z,6.70
2017-11-18T08:18:24.988Z,6.70
2017-11-18T08:20:52.506Z,6.80
2017-11-18T08:23:20.154Z,6.70
2017-11-18T08:25:47.762Z,6.70
2017-11-18T08:28:15.193Z,6.70
2017-11-18T08:30:43.270Z,6.60
2017-11-18T08:33:10.735Z,6.60
2017-11-18T08:35:38.762Z,6.60
2017-11-18T08:38:06.234Z,6.70
2017-11-18T08:40:33.847Z,6.70
2017-11-18T08:43:01.902Z,6.70
2017-11-18T08:45:29.347Z,6.80
2017-11-18T08:47:56.832Z,6.80
2017-11-18T08:50:24.981Z,6.80
2017-11-18T08:52:52.955Z,6.80
2017-11-18T08:55:20.403Z,6.80
2017-11-18T08:57:47.875Z,6.70
2017-11-18T09:00:16.245Z,6.70
2017-11-18T09:02:44.384Z,6.70
2017-11-18T09:05:11.819Z,6.80
2017-11-18T09:07:39.746Z,6.80
2017-11-18T09:10:07.299Z,6.80
2017-11-18T09:12:35.378Z,6.80
2017-11-18T09:15:03.729Z,6.80
2017-11-18T09:17:31.903Z,6.90
2017-11-18T09:19:59.547Z,6.90
2017-11-18T09:22:27.031Z,6.90
2017-11-18T09:24:54.591Z,6.90
2017-11-18T09:27:22.442Z,7.00
2017-11-18T09:29:49.896Z,7.00
2017-11-18T09:32:17.991Z,6.90
2017-11-18T09:34:46.054Z,7.00
2017-11-18T09:37:13.517Z,6.90
2017-11-18T09:39:41.353Z,7.00
2017-11-18T09:42:08.830Z,7.00
2017-11-18T09:44:36.361Z,7.00
2017-11-18T09:47:04.340Z,7.00
2017-11-18T09:49:32.516Z,7.00
2017-11-18T09:51:59.972Z,7.00
2017-11-18T09:54:27.506Z,7.00
2017-11-18T09:56:54.975Z,7.00
2017-11-18T09:59:22.530Z,7.00
2017-11-18T10:01:50.645Z,7.10
2017-11-18T10:04:18.096Z,7.10
2017-11-18T10:06:46.908Z,7.10
2017-11-18T10:09:14.428Z,7.10
2017-11-18T10:11:41.899Z,7.00
2017-11-18T10:14:09.464Z,7.10
2017-11-18T10:16:36.948Z,7.10
2017-11-18T10:19:05.207Z,7.10
2017-11-18T10:21:32.919Z,7.10
2017-11-18T10:24:00.430Z,7.10
2017-11-18T10:26:28.578Z,7.10
2017-11-18T10:28:56.051Z,7.20
2017-11-18T10:31:25.304Z,7.20
2017-11-18T10:33:53.322Z,7.20
2017-11-18T10:36:21.381Z,7.20
2017-11-18T10:38:50.331Z,7.20
2017-11-18T10:41:17.796Z,7.10
2017-11-18T10:43:45.237Z,7.10
2017-11-18T10:46:12.806Z,7.20
2017-11-18T10:48:40.303Z,7.20
2017-11-18T10:51:08.162Z,7.20
2017-11-18T10:53:35.609Z,7.20
2017-11-18T10:56:03.141Z,7.20
2017-11-18T10:58:30.626Z,7.20
2017-11-18T11:00:58.161Z,7.20
2017-11-18T11:03:25.954Z,7.30
2017-11-18T11:05:54.217Z,7.30
2017-11-18T11:08:22.066Z,7.30
2017-11-18T11:10:50.274Z,7.40
2017-11-18T11:13:17.782Z,7.30
2017-11-18T11:15:45.226Z,7.30
2017-11-18T11:18:14.117Z,7.30
2017-11-18T11:20:43.067Z,7.30
2017-11-18T11:23:10.634Z,7.20
2017-11-18T11:25:38.090Z,7.20
2017-11-18T11:28:05.568Z,7.20
2017-11-18T11:30:33.536Z,7.20
2017-11-18T11:33:01.739Z,7.30
2017-11-18T11:35:29.768Z,7.20
2017-11-18T11:37:57.202Z,7.30
2017-11-18T11:40:24.674Z,7.20
2017-11-18T11:42:52.114Z,7.30
2017-11-18T11:45:19.585Z,7.30
2017-11-18T11:47:47.028Z,7.40
2017-11-18T11:50:15.006Z,7.50
2017-11-18T11:52:42.461Z,7.60
2017-11-18T11:55:10.013Z,7.70
2017-11-18T11:57:37.483Z,7.70
2017-11-18T12:00:04.949Z,7.80
2017-11-18T12:02:32.909Z,7.90
2017-11-18T12:05:02.069Z,8.00
2017-11-18T12:07:29.959Z,8.00
2017-11-18T12:09:57.423Z,8.10
2017-11-18T12:12:25.282Z,8.10
2017-11-18T12:14:52.753Z,8.10
2017-11-18T12:17:20.415Z,8.10
2017-11-18T12:19:47.936Z,8.00
2017-11-18T12:22:15.575Z,8.00
2017-11-18T12:24:43.289Z,8.00
2017-11-18T12:27:10.782Z,8.00
2017-11-18T12:29:39.038Z,7.80
2017-11-18T12:32:06.882Z,7.80
2017-11-18T12:34:34.923Z,7.80
2017-11-18T12:37:02.836Z,7.80
2017-11-18T12:39:30.298Z,7.70
2017-11-18T12:41:58.007Z,7.70
2017-11-18T12:44:25.472Z,7.60
2017-11-18T12:46:52.963Z,7.50
2017-11-18T12:49:21.239Z,7.50
2017-11-18T12:51:48.897Z,7.50
2017-11-18T12:54:16.366Z,7.50
2017-11-18T12:56:43.847Z,7.50
2017-11-18T12:59:12.559Z,7.50
2017-11-18T13:01:41.301Z,7.50
2017-11-18T13:04:09.053Z,7.50
2017-11-18T13:06:37.114Z,7.40
2017-11-18T13:09:05.151Z,7.50
2017-11-18T13:11:32.608Z,7.50
2017-11-18T13:14:00.081Z,7.50
2017-11-18T13:16:27.620Z,7.50
2017-11-18T13:18:55.107Z,7.50
2017-11-18T13:21:22.645Z,7.40
2017-11-18T13:23:50.126Z,7.50
2017-11-18T13:26:17.583Z,7.50
2017-11-18T13:28:45.352Z,7.50
2017-11-18T13:31:13.295Z,7.50
2017-11-18T13:33:41.590Z,7.50
2017-11-18T13:36:10.384Z,7.50
2017-11-18T13:38:37.939Z,7.50
2017-11-18T13:41:05.384Z,7.50
2017-11-18T13:43:32.856Z,7.50
2017-11-18T13:46:00.350Z,7.50
2017-11-18T13:48:29.179Z,7.50
2017-11-18T13:50:57.357Z,7.50
2017-11-18T13:53:24.828Z,7.50
2017-11-18T13:55:52.501Z,7.50
2017-11-18T13:58:19.979Z,7.50
2017-11-18T14:00:48.807Z,7.50
2017-11-18T14:03:16.710Z,7.50
2017-11-18T14:05:44.770Z,7.50
2017-11-18T14:08:12.485Z,7.50
2017-11-18T14:10:39.959Z,7.60
2017-11-18T14:13:07.424Z,7.60
2017-11-18T14:15:35.061Z,7.60
2017-11-18T14:18:02.867Z,7.60
2017-11-18T14:20:30.317Z,7.60
2017-11-18T14:22:57.762Z,7.60
2017-11-18T14:25:25.281Z,7.60
2017-11-18T14:27:53.499Z,7.60
2017-11-18T14:30:22.043Z,7.60
2017-11-18T14:32:51.632Z,7.50
2017-11-18T14:35:20.767Z,7.40
2017-11-18T14:37:48.753Z,7.40
2017-11-18T14:40:16.301Z,7.40
2017-11-18T14:42:44.672Z,7.30
2017-11-18T14:45:12.134Z,7.20
2017-11-18T14:47:39.575Z,7.20
2017-11-18T14:50:07.533Z,7.10
2017-11-18T14:52:35.450Z,7.00
2017-11-18T14:55:02.981Z,7.00
2017-11-18T14:57:30.432Z,7.00
2017-11-18T14:59:57.892Z,6.90
2017-11-18T15:02:25.653Z,6.90
2017-11-18T15:04:53.211Z,6.90
2017-11-18T15:07:21.123Z,6.90
2017-11-18T15:09:48.662Z,6.90
2017-11-18T15:12:16.111Z,6.80
2017-11-18T15:14:45.031Z,6.70
2017-11-18T15:17:18.966Z,6.60
2017-11-18T15:19:59.769Z,6.50
2017-11-18T15:22:42.083Z,6.40
2017-11-18T15:25:15.300Z,6.30
2017-11-18T15:27:48.487Z,6.30
2017-11-18T15:30:32.650Z,6.20
2017-11-18T15:33:05.117Z,6.20
2017-11-18T15:35:48.298Z,6.20
2017-11-18T15:38:34.128Z,6.20
2017-11-18T15:41:01.632Z,6.20
2017-11-18T15:43:30.889Z,6.10
2017-11-18T15:45:58.340Z,6.10
2017-11-18T15:48:31.384Z,6.10
2017-11-18T15:51:04.559Z,6.10
2017-11-18T15:53:37.665Z,6.10
2017-11-18T15:56:07.783Z,6.10
2017-11-18T15:58:35.851Z,6.00
2017-11-18T16:01:09.178Z,6.00
2017-11-18T16:03:49.606Z,6.00
2017-11-18T16:06:21.918Z,6.00
2017-11-18T16:08:49.386Z,6.00
2017-11-18T16:11:16.849Z,6.00
2017-11-18T16:13:45.104Z,6.00
2017-11-18T16:16:12.675Z,6.00
2017-11-18T16:18:40.147Z,6.00
2017-11-18T16:21:08.594Z,6.00
2017-11-18T16:23:36.071Z,6.00
2017-11-18T16:26:03.758Z,6.00
2017-11-18T16:28:31.767Z,5.90
2017-11-18T16:30:59.543Z,5.90
2017-11-18T16:33:27.007Z,6.00
2017-11-18T16:35:55.987Z,6.10
2017-11-18T16:38:23.868Z,6.00
2017-11-18T16:40:51.313Z,6.10
2017-11-18T16:43:19.207Z,6.10
2017-11-18T16:45:46.657Z,6.20
2017-11-18T16:48:15.005Z,6.10
2017-11-18T16:50:43.016Z,6.10
2017-11-18T16:53:11.241Z,6.10
2017-11-18T16:55:38.693Z,6.10
2017-11-18T16:58:07.075Z,6.10
2017-11-18T17:00:34.547Z,6.10
2017-11-18T17:03:02.523Z,6.10
2017-11-18T17:05:30.019Z,6.20
2017-11-18T17:07:58.673Z,6.20
2017-11-18T17:10:26.151Z,6.20
2017-11-18T17:12:54.355Z,6.30
2017-11-18T17:15:22.034Z,6.20
2017-11-18T17:17:49.822Z,6.20
2017-11-18T17:20:17.295Z,6.20
2017-11-18T17:22:45.195Z,6.20
2017-11-18T17:25:13.109Z,6.20
2017-11-18T17:27:40.627Z,6.20
2017-11-18T17:30:08.644Z,6.20
2017-11-18T17:32:36.093Z,6.20
2017-11-18T17:35:03.967Z,6.20
2017-11-18T17:37:31.772Z,6.20
2017-11-18T17:40:00.378Z,6.20
2017-11-18T17:42:27.940Z,6.20
2017-11-18T17:44:55.395Z,6.20
2017-11-18T17:47:22.953Z,6.20
2017-11-18T17:49:50.959Z,6.20
2017-11-18T17:52:18.478Z,6.30
2017-11-18T17:54:46.040Z,6.30
2017-11-18T17:57:13.575Z,6.30
2017-11-18T17:59:41.032Z,6.30
2017-11-18T18:02:08.853Z,6.30
2017-11-18T18:04:36.411Z,6.30
2017-11-18T18:07:05.813Z,6.30
2017-11-18T18:09:33.714Z,6.30
2017-11-18T18:12:01.929Z,6.30
2017-11-18T18:14:30.035Z,6.30
2017-11-18T18:16:57.475Z,6.20
2017-11-18T18:19:25.187Z,6.20
2017-11-18T18:21:53.093Z,6.30
2017-11-18T18:24:20.643Z,6.30
2017-11-18T18:26:48.192Z,6.30
2017-11-18T18:29:15.862Z,6.30
2017-11-18T18:31:43.694Z,6.30
2017-11-18T18:34:12.476Z,6.20
2017-11-18T18:36:41.023Z,6.20
2017-11-18T18:39:09.164Z,6.20
2017-11-18T18:41:36.618Z,6.20
2017-11-18T18:44:04.283Z,6.20
2017-11-18T18:46:31.759Z,6.20
2017-11-18T18:49:00.651Z,6.20
2017-11-18T18:51:28.146Z,6.20
2017-11-18T18:53:56.468Z,6.30
2017-11-18T18:56:23.920Z,6.20
2017-11-18T18:58:52.434Z,6.30
2017-11-18T19:01:20.893Z,6.30
2017-11-18T19:03:48.462Z,6.30
2017-11-18T19:06:16.649Z,6.40
2017-11-18T19:08:44.278Z,6.40
2017-11-18T19:11:11.724Z,6.40
2017-11-18T19:13:39.479Z,6.40
2017-11-18T19:16:06.921Z,6.40
2017-11-18T19:18:35.356Z,6.40
2017-11-18T19:21:03.198Z,6.50
2017-11-18T19:23:31.551Z,6.50
2017-11-18T19:25:59.088Z,6.50
2017-11-18T19:28:27.487Z,6.60
2017-11-18T19:30:55.315Z,6.60
2017-11-18T19:33:22.928Z,6.60
2017-11-18T19:35:50.778Z,6.60
2017-11-18T19:38:18.696Z,6.60
2017-11-18T19:40:47.758Z,6.50
2017-11-18T19:43:15.242Z,6.50
2017-11-18T19:45:43.535Z,6.50
2017-11-18T19:48:11.809Z,6.40
2017-11-18T19:50:39.882Z,6.40
2017-11-18T19:53:07.813Z,6.50
2017-11-18T19:55:35.470Z,6.50
2017-11-18T19:58:02.985Z,6.50
2017-11-18T20:00:31.395Z,6.50
2017-11-18T20:02:59.398Z,6.50
2017-11-18T20:05:27.416Z,6.50
2017-11-18T20:07:56.099Z,6.50
2017-11-18T20:10:24.431Z,6.50
2017-11-18T20:12:51.940Z,6.50
2017-11-18T20:15:20.270Z,6.50
2017-11-18T20:17:48.222Z,6.50
2017-11-18T20:20:15.693Z,6.50
2017-11-18T20:22:43.159Z,6.50
2017-11-18T20:25:10.678Z,6.50
2017-11-18T20:27:38.370Z,6.50
2017-11-18T20:30:06.376Z,6.60
2017-11-18T20:32:34.800Z,6.60
2017-11-18T20:35:02.756Z,6.50
2017-11-18T20:37:30.661Z,6.60
2017-11-18T20:39:58.943Z,6.60
2017-11-18T20:42:26.416Z,6.60
2017-11-18T20:44:53.911Z,6.60
2017-11-18T20:47:21.498Z,6.60
2017-11-18T20:49:49.567Z,6.50
2017-11-18T20:52:17.218Z,6.50
2017-11-18T20:54:44.669Z,6.60
2017-11-18T20:57:12.130Z,6.50
2017-11-18T20:59:39.723Z,6.50
2017-11-18T21:02:07.755Z,6.50
2017-11-18T21:04:35.245Z,6.50
2017-11-18T21:07:03.243Z,6.50
2017-11-18T21:09:31.480Z,6.60
2017-11-18T21:11:58.972Z,6.50
2017-11-18T21:14:27.626Z,6.50
2017-11-18T21:16:55.513Z,6.50
2017-11-18T21:19:23.742Z,6.60
2017-11-18T21:21:51.272Z,6.60
2017-11-18T21:24:19.418Z,6.60
2017-11-18T21:26:47.645Z,6.60
2017-11-18T21:29:15.131Z,6.60
2017-11-18T21:31:43.111Z,6.60
2017-11-18T21:34:11.274Z,6.60
2017-11-18T21:36:38.791Z,6.60
2017-11-18T21:39:06.746Z,6.60
2017-11-18T21:41:34.767Z,6.50
2017-11-18T21:44:02.298Z,6.50
2017-11-18T21:46:29.875Z,6.50
2017-11-18T21:48:58.015Z,6.50
2017-11-18T21:51:25.472Z,6.50
2017-11-18T21:53:53.634Z,6.50
2017-11-18T21:56:21.082Z,6.50
2017-11-18T21:58:49.378Z,6.50
2017-11-18T22:01:17.451Z,6.50
2017-11-18T22:03:44.905Z,6.50
2017-11-18T22:06:13.007Z,6.50
2017-11-18T22:08:40.979Z,6.50
2017-11-18T22:11:08.414Z,6.40
2017-11-18T22:13:36.238Z,6.40
2017-11-18T22:16:04.454Z,6.40
2017-11-18T22:18:32.073Z,6.40
2017-11-18T22:20:59.551Z,6.40
2017-11-18T22:23:27.572Z,6.40
2017-11-18T22:25:55.005Z,6.30
2017-11-18T22:28:22.580Z,6.40
2017-11-18T22:30:50.675Z,6.30
2017-11-18T22:33:19.435Z,6.40
2017-11-18T22:35:47.428Z,6.40
2017-11-18T22:38:15.449Z,6.40
2017-11-18T22:40:43.150Z,6.40
2017-11-18T22:43:10.617Z,6.40
2017-11-18T22:45:38.067Z,6.40
2017-11-18T22:48:05.681Z,6.40
2017-11-18T22:50:33.492Z,6.40
2017-11-18T22:53:00.936Z,6.40
2017-11-18T22:55:28.462Z,6.40
2017-11-18T22:57:56.035Z,6.40
2017-11-18T23:00:41.402Z,6.50
2017-11-18T23:03:09.198Z,6.40
2017-11-18T23:05:36.643Z,6.40
2017-11-18T23:08:04.417Z,6.40
2017-11-18T23:10:32.282Z,6.40
2017-11-18T23:13:00.531Z,6.50
2017-11-18T23:15:28.057Z,6.40
2017-11-18T23:17:55.530Z,6.50
2017-11-18T23:20:23.129Z,6.40
2017-11-18T23:22:50.587Z,6.40
2017-11-18T23:25:18.039Z,6.50
2017-11-18T23:27:45.961Z,6.50
2017-11-18T23:30:14.042Z,6.40
2017-11-18T23:32:42.415Z,6.40
2017-11-18T23:35:10.133Z,6.50
2017-11-18T23:37:38.091Z,6.40
2017-11-18T23:40:06.157Z,6.50
2017-11-18T23:42:34.261Z,6.50
2017-11-18T23:45:02.570Z,6.50
2017-11-18T23:47:30.027Z,6.40
2017-11-18T23:49:57.790Z,6.50
2017-11-18T23:52:25.692Z,6.50
2017-11-18T23:54:53.344Z,6.50
2017-11-18T23:57:20.782Z,6.50
2017-11-18T23:59:48.228Z,6.50
